Pagrindinis puslapis
METAR-TAF:

METAR-TAF

Oro uostai :

Karlstadas, Švedija

platuma: 59-26-41N, ilguma: 013-20-15E, Aukštis: 107 m

Dabartinis oras

Ataskaita buvo paskelbta 42 minutes, ne 12:50 UTC
Vėjas 8 kt iš Pietų/Pietvakarių
Temperatūra 4°C
Drėgmė 93%
Slėgis 996 hPa
Matomumas 10 km arba daugiau
Su prošvaistėmis ne aukštis 900 ft

METAR: ESOK 161250Z 20008KT 9999 BKN009 04/03 Q0996

Laikas: 14:32 (13:32 UTC)

Prognozė

Ataskaita buvo paskelbta 2 valandos ir 2 minutes, ne 11:30 UTC
Prognozė galioja nuo 16 metu 12 UTC su 16 metu 20 UTC
Vėjas 9 kt iš Pietų/Pietvakarių
Matomumas 10 km arba daugiau
Išsisklaidę debesys ne aukštis 1000 ft
Su prošvaistėmis ne aukštis 3000 ft
Laikinai
nuo 16 metu 12 UTC su 16 metu 20 UTC
Matomumas: 4000 m
Su prošvaistėmis ne aukštis 700 ft
lietus, dulksna

TAF: ESOK 161130Z 1612/1620 21009KT 9999 SCT010 BKN030 TEMPO 1612/1620 4000 RA DZ BKN007

Orai ataskaitas ir orų prognozės (METAR, TAF).

turimą stotys yra geltonos ir raudonos taškus žemėlapyje.

Perkelti pele per norėdami pamatyti stoties vardą.

Tada spustelėkite, norėdami matyti oro stebėjimo ir prognozės.

Norėdami pakeisti žemėlapį: spustelėkite ant žalios mygtukų su juodo kryžiaus žemyn,; žalią mygtuką su brūkšneliu, jei norite nutolinti; arba žalių rodyklių gretimoms žemėlapius.


METAR-TAF: